sensor_id;sensor_type;location;lat;lon;timestamp;temperature;humidity
21306;DHT22;10812;51.838;5.838;2023-04-24T00:01:49;9.90;99.90
21306;DHT22;10812;51.838;5.838;2023-04-24T00:04:20;9.80;99.90
21306;DHT22;10812;51.838;5.838;2023-04-24T00:06:48;9.80;99.90
21306;DHT22;10812;51.838;5.838;2023-04-24T00:09:20;9.90;99.90
21306;DHT22;10812;51.838;5.838;2023-04-24T00:11:48;9.80;99.90
21306;DHT22;10812;51.838;5.838;2023-04-24T00:14:17;9.80;99.90
21306;DHT22;10812;51.838;5.838;2023-04-24T00:16:45;9.80;99.90
21306;DHT22;10812;51.838;5.838;2023-04-24T00:19:13;9.80;99.90
21306;DHT22;10812;51.838;5.838;2023-04-24T00:21:42;9.90;99.90
21306;DHT22;10812;51.838;5.838;2023-04-24T00:24:11;9.80;99.90
21306;DHT22;10812;51.838;5.838;2023-04-24T00:26:39;9.80;99.90
21306;DHT22;10812;51.838;5.838;2023-04-24T00:29:07;9.80;99.90
21306;DHT22;10812;51.838;5.838;2023-04-24T00:31:35;9.80;99.90
21306;DHT22;10812;51.838;5.838;2023-04-24T00:34:04;9.80;99.90
21306;DHT22;10812;51.838;5.838;2023-04-24T00:36:32;9.80;99.90
21306;DHT22;10812;51.838;5.838;2023-04-24T00:39:02;9.80;99.90
21306;DHT22;10812;51.838;5.838;2023-04-24T00:41:30;9.80;99.90
21306;DHT22;10812;51.838;5.838;2023-04-24T00:43:59;9.80;99.90
21306;DHT22;10812;51.838;5.838;2023-04-24T00:46:27;9.80;99.90
21306;DHT22;10812;51.838;5.838;2023-04-24T00:48:56;9.80;99.90
21306;DHT22;10812;51.838;5.838;2023-04-24T00:51:24;9.90;99.90
21306;DHT22;10812;51.838;5.838;2023-04-24T00:53:54;9.90;99.90
21306;DHT22;10812;51.838;5.838;2023-04-24T00:56:24;9.90;99.90
21306;DHT22;10812;51.838;5.838;2023-04-24T00:58:52;9.90;99.90
21306;DHT22;10812;51.838;5.838;2023-04-24T01:01:21;9.90;99.90
21306;DHT22;10812;51.838;5.838;2023-04-24T01:03:51;9.90;99.90
21306;DHT22;10812;51.838;5.838;2023-04-24T01:06:21;9.90;99.90
21306;DHT22;10812;51.838;5.838;2023-04-24T01:08:50;9.90;99.90
21306;DHT22;10812;51.838;5.838;2023-04-24T01:11:18;9.80;99.90
21306;DHT22;10812;51.838;5.838;2023-04-24T01:13:48;9.80;99.90
21306;DHT22;10812;51.838;5.838;2023-04-24T01:16:16;9.90;99.90
21306;DHT22;10812;51.838;5.838;2023-04-24T01:18:47;9.80;99.90
21306;DHT22;10812;51.838;5.838;2023-04-24T01:21:16;9.80;99.90
21306;DHT22;10812;51.838;5.838;2023-04-24T01:23:47;9.90;99.90
21306;DHT22;10812;51.838;5.838;2023-04-24T01:26:16;9.90;99.90
21306;DHT22;10812;51.838;5.838;2023-04-24T01:28:46;9.90;99.90
21306;DHT22;10812;51.838;5.838;2023-04-24T01:31:15;9.90;99.90
21306;DHT22;10812;51.838;5.838;2023-04-24T01:33:44;9.80;99.90
21306;DHT22;10812;51.838;5.838;2023-04-24T01:36:12;9.90;99.90
21306;DHT22;10812;51.838;5.838;2023-04-24T01:38:41;9.90;99.90
21306;DHT22;10812;51.838;5.838;2023-04-24T01:41:10;9.90;99.90
21306;DHT22;10812;51.838;5.838;2023-04-24T01:43:39;9.90;99.90
21306;DHT22;10812;51.838;5.838;2023-04-24T01:46:07;9.90;99.90
21306;DHT22;10812;51.838;5.838;2023-04-24T01:48:35;9.90;99.90
21306;DHT22;10812;51.838;5.838;2023-04-24T01:51:04;9.90;99.90
21306;DHT22;10812;51.838;5.838;2023-04-24T01:53:32;9.90;99.90
21306;DHT22;10812;51.838;5.838;2023-04-24T01:56:01;9.90;99.90
21306;DHT22;10812;51.838;5.838;2023-04-24T01:58:30;9.90;99.90
21306;DHT22;10812;51.838;5.838;2023-04-24T02:00:59;9.90;99.90
21306;DHT22;10812;51.838;5.838;2023-04-24T02:03:28;9.90;99.90
21306;DHT22;10812;51.838;5.838;2023-04-24T02:05:56;9.80;99.90
21306;DHT22;10812;51.838;5.838;2023-04-24T02:08:24;9.80;99.90
21306;DHT22;10812;51.838;5.838;2023-04-24T02:10:52;9.80;99.90
21306;DHT22;10812;51.838;5.838;2023-04-24T02:13:20;9.70;99.90
21306;DHT22;10812;51.838;5.838;2023-04-24T02:15:50;9.70;99.90
21306;DHT22;10812;51.838;5.838;2023-04-24T02:18:18;9.70;99.90
21306;DHT22;10812;51.838;5.838;2023-04-24T02:20:46;9.70;99.90
21306;DHT22;10812;51.838;5.838;2023-04-24T02:23:15;9.70;99.90
21306;DHT22;10812;51.838;5.838;2023-04-24T02:25:43;9.70;99.90
21306;DHT22;10812;51.838;5.838;2023-04-24T02:28:11;9.60;99.90
21306;DHT22;10812;51.838;5.838;2023-04-24T02:30:39;9.60;99.90
21306;DHT22;10812;51.838;5.838;2023-04-24T02:33:09;9.60;99.90
21306;DHT22;10812;51.838;5.838;2023-04-24T02:35:37;9.70;99.90
21306;DHT22;10812;51.838;5.838;2023-04-24T02:38:05;9.60;99.90
21306;DHT22;10812;51.838;5.838;2023-04-24T02:40:33;9.60;99.90
21306;DHT22;10812;51.838;5.838;2023-04-24T02:43:01;9.60;99.90
21306;DHT22;10812;51.838;5.838;2023-04-24T02:45:29;9.60;99.90
21306;DHT22;10812;51.838;5.838;2023-04-24T02:47:58;9.70;99.90
21306;DHT22;10812;51.838;5.838;2023-04-24T02:50:28;9.60;99.90
21306;DHT22;10812;51.838;5.838;2023-04-24T02:52:56;9.70;99.90
21306;DHT22;10812;51.838;5.838;2023-04-24T02:55:26;9.60;99.90
21306;DHT22;10812;51.838;5.838;2023-04-24T02:57:54;9.60;99.90
21306;DHT22;10812;51.838;5.838;2023-04-24T03:12:38;9.40;99.90
21306;DHT22;10812;51.838;5.838;2023-04-24T03:15:07;9.40;99.90
21306;DHT22;10812;51.838;5.838;2023-04-24T03:17:35;9.40;99.90
21306;DHT22;10812;51.838;5.838;2023-04-24T03:20:05;9.40;99.90
21306;DHT22;10812;51.838;5.838;2023-04-24T03:22:35;9.30;99.90
21306;DHT22;10812;51.838;5.838;2023-04-24T03:25:03;9.30;99.90
21306;DHT22;10812;51.838;5.838;2023-04-24T03:27:32;9.30;99.90
21306;DHT22;10812;51.838;5.838;2023-04-24T03:30:01;9.30;99.90
21306;DHT22;10812;51.838;5.838;2023-04-24T03:32:30;9.30;99.90
21306;DHT22;10812;51.838;5.838;2023-04-24T03:34:59;9.20;99.90
21306;DHT22;10812;51.838;5.838;2023-04-24T03:37:27;9.20;99.90
21306;DHT22;10812;51.838;5.838;2023-04-24T03:39:55;9.20;99.90
21306;DHT22;10812;51.838;5.838;2023-04-24T03:42:23;9.20;99.90
21306;DHT22;10812;51.838;5.838;2023-04-24T03:44:51;9.20;99.90
21306;DHT22;10812;51.838;5.838;2023-04-24T03:47:21;9.20;99.90
21306;DHT22;10812;51.838;5.838;2023-04-24T03:49:49;9.20;99.90
21306;DHT22;10812;51.838;5.838;2023-04-24T03:52:17;9.10;99.90
21306;DHT22;10812;51.838;5.838;2023-04-24T03:54:46;9.10;99.90
21306;DHT22;10812;51.838;5.838;2023-04-24T04:12:39;9.10;99.90
21306;DHT22;10812;51.838;5.838;2023-04-24T04:15:08;9.00;99.90
21306;DHT22;10812;51.838;5.838;2023-04-24T04:17:36;9.00;99.90
21306;DHT22;10812;51.838;5.838;2023-04-24T04:20:06;9.00;99.90
21306;DHT22;10812;51.838;5.838;2023-04-24T04:22:36;9.00;99.90
21306;DHT22;10812;51.838;5.838;2023-04-24T04:25:06;9.00;99.90
21306;DHT22;10812;51.838;5.838;2023-04-24T04:27:35;8.90;99.90
21306;DHT22;10812;51.838;5.838;2023-04-24T04:30:05;8.90;99.90
21306;DHT22;10812;51.838;5.838;2023-04-24T04:32:34;8.90;99.90
21306;DHT22;10812;51.838;5.838;2023-04-24T04:35:03;8.90;99.90
21306;DHT22;10812;51.838;5.838;2023-04-24T04:37:31;8.90;99.90
21306;DHT22;10812;51.838;5.838;2023-04-24T04:40:00;8.90;99.90
21306;DHT22;10812;51.838;5.838;2023-04-24T04:42:33;9.00;99.90
21306;DHT22;10812;51.838;5.838;2023-04-24T04:45:04;9.00;99.90
21306;DHT22;10812;51.838;5.838;2023-04-24T04:47:34;9.00;99.90
21306;DHT22;10812;51.838;5.838;2023-04-24T04:50:03;9.00;99.90
21306;DHT22;10812;51.838;5.838;2023-04-24T04:52:32;8.90;99.90
21306;DHT22;10812;51.838;5.838;2023-04-24T04:55:00;9.00;99.90
21306;DHT22;10812;51.838;5.838;2023-04-24T04:57:28;9.00;99.90
21306;DHT22;10812;51.838;5.838;2023-04-24T04:59:56;8.90;99.90
21306;DHT22;10812;51.838;5.838;2023-04-24T05:02:26;8.90;99.90
21306;DHT22;10812;51.838;5.838;2023-04-24T05:04:54;8.90;99.90
21306;DHT22;10812;51.838;5.838;2023-04-24T05:07:23;8.90;99.90
21306;DHT22;10812;51.838;5.838;2023-04-24T05:09:51;8.90;99.90
21306;DHT22;10812;51.838;5.838;2023-04-24T05:12:19;8.90;99.90
21306;DHT22;10812;51.838;5.838;2023-04-24T05:14:47;8.90;99.90
21306;DHT22;10812;51.838;5.838;2023-04-24T05:28:40;8.80;99.90
21306;DHT22;10812;51.838;5.838;2023-04-24T05:31:08;8.90;99.90
21306;DHT22;10812;51.838;5.838;2023-04-24T05:33:37;8.90;99.90
21306;DHT22;10812;51.838;5.838;2023-04-24T05:36:06;8.90;99.90
21306;DHT22;10812;51.838;5.838;2023-04-24T05:38:34;8.90;99.90
21306;DHT22;10812;51.838;5.838;2023-04-24T05:41:02;8.90;99.90
21306;DHT22;10812;51.838;5.838;2023-04-24T05:43:31;8.90;99.90
21306;DHT22;10812;51.838;5.838;2023-04-24T05:46:00;8.90;99.90
21306;DHT22;10812;51.838;5.838;2023-04-24T05:48:28;8.90;99.90
21306;DHT22;10812;51.838;5.838;2023-04-24T05:50:57;8.90;99.90
21306;DHT22;10812;51.838;5.838;2023-04-24T05:53:25;8.90;99.90
21306;DHT22;10812;51.838;5.838;2023-04-24T05:55:53;8.90;99.90
21306;DHT22;10812;51.838;5.838;2023-04-24T05:58:21;9.10;99.90
21306;DHT22;10812;51.838;5.838;2023-04-24T06:00:50;9.00;99.90
21306;DHT22;10812;51.838;5.838;2023-04-24T06:03:19;9.00;99.90
21306;DHT22;10812;51.838;5.838;2023-04-24T06:05:49;9.00;99.90
21306;DHT22;10812;51.838;5.838;2023-04-24T06:08:18;9.00;99.90
21306;DHT22;10812;51.838;5.838;2023-04-24T06:10:46;9.00;99.90
21306;DHT22;10812;51.838;5.838;2023-04-24T06:13:14;9.00;99.90
21306;DHT22;10812;51.838;5.838;2023-04-24T06:15:43;9.00;99.90
21306;DHT22;10812;51.838;5.838;2023-04-24T06:18:12;9.00;99.90
21306;DHT22;10812;51.838;5.838;2023-04-24T06:20:41;9.00;99.90
21306;DHT22;10812;51.838;5.838;2023-04-24T06:23:09;9.00;99.90
21306;DHT22;10812;51.838;5.838;2023-04-24T06:25:37;9.00;99.90
21306;DHT22;10812;51.838;5.838;2023-04-24T06:28:06;9.00;99.90
21306;DHT22;10812;51.838;5.838;2023-04-24T06:30:34;9.00;99.90
21306;DHT22;10812;51.838;5.838;2023-04-24T06:33:02;9.10;99.90
21306;DHT22;10812;51.838;5.838;2023-04-24T06:46:53;9.30;99.90
21306;DHT22;10812;51.838;5.838;2023-04-24T06:49:21;9.30;99.90
21306;DHT22;10812;51.838;5.838;2023-04-24T06:51:49;9.30;99.90
21306;DHT22;10812;51.838;5.838;2023-04-24T06:54:17;9.30;99.90
21306;DHT22;10812;51.838;5.838;2023-04-24T06:56:45;9.20;99.90
21306;DHT22;10812;51.838;5.838;2023-04-24T06:59:14;9.30;99.90
21306;DHT22;10812;51.838;5.838;2023-04-24T07:01:42;9.30;99.90
21306;DHT22;10812;51.838;5.838;2023-04-24T07:04:12;9.40;99.90
21306;DHT22;10812;51.838;5.838;2023-04-24T07:06:41;9.40;99.90
21306;DHT22;10812;51.838;5.838;2023-04-24T07:09:09;9.30;99.90
21306;DHT22;10812;51.838;5.838;2023-04-24T07:11:37;9.20;99.90
21306;DHT22;10812;51.838;5.838;2023-04-24T07:14:07;9.30;99.90
21306;DHT22;10812;51.838;5.838;2023-04-24T07:16:35;9.30;99.90
21306;DHT22;10812;51.838;5.838;2023-04-24T07:19:06;9.20;99.90
21306;DHT22;10812;51.838;5.838;2023-04-24T07:21:35;9.20;99.90
21306;DHT22;10812;51.838;5.838;2023-04-24T07:24:04;9.20;99.90
21306;DHT22;10812;51.838;5.838;2023-04-24T07:26:36;9.10;99.90
21306;DHT22;10812;51.838;5.838;2023-04-24T07:29:04;9.00;99.90
21306;DHT22;10812;51.838;5.838;2023-04-24T07:31:33;9.00;99.90
21306;DHT22;10812;51.838;5.838;2023-04-24T07:34:01;9.00;99.90
21306;DHT22;10812;51.838;5.838;2023-04-24T07:36:29;8.90;99.90
21306;DHT22;10812;51.838;5.838;2023-04-24T07:39:00;8.80;99.90
21306;DHT22;10812;51.838;5.838;2023-04-24T07:41:28;8.90;99.90
21306;DHT22;10812;51.838;5.838;2023-04-24T07:43:56;8.90;99.90
21306;DHT22;10812;51.838;5.838;2023-04-24T07:46:25;8.90;99.90
21306;DHT22;10812;51.838;5.838;2023-04-24T07:48:56;8.90;99.90
21306;DHT22;10812;51.838;5.838;2023-04-24T07:51:39;8.90;99.90
21306;DHT22;10812;51.838;5.838;2023-04-24T07:54:10;8.90;99.90
21306;DHT22;10812;51.838;5.838;2023-04-24T07:56:38;8.90;99.90
21306;DHT22;10812;51.838;5.838;2023-04-24T07:59:06;8.80;99.90
21306;DHT22;10812;51.838;5.838;2023-04-24T08:01:34;8.80;99.90
21306;DHT22;10812;51.838;5.838;2023-04-24T08:04:02;8.80;99.90
21306;DHT22;10812;51.838;5.838;2023-04-24T08:06:31;8.80;99.90
21306;DHT22;10812;51.838;5.838;2023-04-24T08:09:00;8.70;99.90
21306;DHT22;10812;51.838;5.838;2023-04-24T08:11:29;8.60;99.90
21306;DHT22;10812;51.838;5.838;2023-04-24T08:13:58;8.60;99.90
21306;DHT22;10812;51.838;5.838;2023-04-24T08:16:26;8.60;99.90
21306;DHT22;10812;51.838;5.838;2023-04-24T08:18:55;8.60;99.90
21306;DHT22;10812;51.838;5.838;2023-04-24T08:21:23;8.50;99.90
21306;DHT22;10812;51.838;5.838;2023-04-24T08:23:53;8.50;99.90
21306;DHT22;10812;51.838;5.838;2023-04-24T08:26:21;8.50;99.90
21306;DHT22;10812;51.838;5.838;2023-04-24T08:28:50;8.50;99.90
21306;DHT22;10812;51.838;5.838;2023-04-24T08:31:19;8.50;99.90
21306;DHT22;10812;51.838;5.838;2023-04-24T08:33:47;8.50;99.90
21306;DHT22;10812;51.838;5.838;2023-04-24T08:36:15;8.50;99.90
21306;DHT22;10812;51.838;5.838;2023-04-24T08:38:43;8.50;99.90
21306;DHT22;10812;51.838;5.838;2023-04-24T08:41:14;8.50;99.90
21306;DHT22;10812;51.838;5.838;2023-04-24T08:43:43;8.50;99.90
21306;DHT22;10812;51.838;5.838;2023-04-24T08:46:15;8.50;99.90
21306;DHT22;10812;51.838;5.838;2023-04-24T08:48:44;8.50;99.90
21306;DHT22;10812;51.838;5.838;2023-04-24T08:51:13;8.60;99.90
21306;DHT22;10812;51.838;5.838;2023-04-24T08:53:42;8.60;99.90
21306;DHT22;10812;51.838;5.838;2023-04-24T08:56:11;8.60;99.90
21306;DHT22;10812;51.838;5.838;2023-04-24T08:58:40;8.60;99.90
21306;DHT22;10812;51.838;5.838;2023-04-24T09:01:09;8.60;99.90
21306;DHT22;10812;51.838;5.838;2023-04-24T09:03:39;8.60;99.90
21306;DHT22;10812;51.838;5.838;2023-04-24T09:06:08;8.60;99.90
21306;DHT22;10812;51.838;5.838;2023-04-24T09:08:38;8.60;99.90
21306;DHT22;10812;51.838;5.838;2023-04-24T09:11:08;8.70;99.90
21306;DHT22;10812;51.838;5.838;2023-04-24T09:13:37;8.70;99.90
21306;DHT22;10812;51.838;5.838;2023-04-24T09:16:06;8.70;99.90
21306;DHT22;10812;51.838;5.838;2023-04-24T09:18:34;8.70;99.90
21306;DHT22;10812;51.838;5.838;2023-04-24T09:21:06;8.80;99.90
21306;DHT22;10812;51.838;5.838;2023-04-24T09:23:34;8.90;99.90
21306;DHT22;10812;51.838;5.838;2023-04-24T09:26:03;9.00;99.90
21306;DHT22;10812;51.838;5.838;2023-04-24T09:28:35;9.00;99.90
21306;DHT22;10812;51.838;5.838;2023-04-24T09:31:05;9.10;99.90
21306;DHT22;10812;51.838;5.838;2023-04-24T09:33:34;9.20;99.90
21306;DHT22;10812;51.838;5.838;2023-04-24T09:36:04;9.20;99.90
21306;DHT22;10812;51.838;5.838;2023-04-24T09:38:34;9.20;99.90
21306;DHT22;10812;51.838;5.838;2023-04-24T09:41:05;9.20;99.90
21306;DHT22;10812;51.838;5.838;2023-04-24T09:43:34;9.10;99.90
21306;DHT22;10812;51.838;5.838;2023-04-24T09:46:05;9.00;99.90
21306;DHT22;10812;51.838;5.838;2023-04-24T09:48:36;9.10;99.90
21306;DHT22;10812;51.838;5.838;2023-04-24T09:51:06;9.10;99.90
21306;DHT22;10812;51.838;5.838;2023-04-24T09:53:37;9.10;99.90
21306;DHT22;10812;51.838;5.838;2023-04-24T09:56:07;9.30;99.90
21306;DHT22;10812;51.838;5.838;2023-04-24T09:58:36;9.40;99.90
21306;DHT22;10812;51.838;5.838;2023-04-24T10:01:05;9.50;99.90
21306;DHT22;10812;51.838;5.838;2023-04-24T10:03:34;9.70;99.90
21306;DHT22;10812;51.838;5.838;2023-04-24T10:06:03;9.80;99.90
21306;DHT22;10812;51.838;5.838;2023-04-24T10:08:37;9.50;99.90
21306;DHT22;10812;51.838;5.838;2023-04-24T10:11:06;9.50;99.90
21306;DHT22;10812;51.838;5.838;2023-04-24T10:13:35;9.50;99.90
21306;DHT22;10812;51.838;5.838;2023-04-24T10:31:32;11.60;99.90
21306;DHT22;10812;51.838;5.838;2023-04-24T10:34:01;12.10;99.90
21306;DHT22;10812;51.838;5.838;2023-04-24T10:36:30;12.10;99.90
21306;DHT22;10812;51.838;5.838;2023-04-24T10:39:02;12.10;99.90
21306;DHT22;10812;51.838;5.838;2023-04-24T10:41:31;12.10;99.90
21306;DHT22;10812;51.838;5.838;2023-04-24T10:44:04;11.80;99.90
21306;DHT22;10812;51.838;5.838;2023-04-24T10:46:34;11.60;99.90
21306;DHT22;10812;51.838;5.838;2023-04-24T10:49:04;11.60;99.90
21306;DHT22;10812;51.838;5.838;2023-04-24T10:51:46;11.50;99.90
21306;DHT22;10812;51.838;5.838;2023-04-24T10:54:25;11.30;99.90
21306;DHT22;10812;51.838;5.838;2023-04-24T10:57:27;11.00;99.90
21306;DHT22;10812;51.838;5.838;2023-04-24T11:00:18;10.80;99.90
21306;DHT22;10812;51.838;5.838;2023-04-24T11:02:48;10.40;99.90
21306;DHT22;10812;51.838;5.838;2023-04-24T11:05:20;10.20;99.90
21306;DHT22;10812;51.838;5.838;2023-04-24T11:08:10;9.90;99.90
21306;DHT22;10812;51.838;5.838;2023-04-24T11:10:46;9.80;99.90
21306;DHT22;10812;51.838;5.838;2023-04-24T11:13:15;9.90;99.90
21306;DHT22;10812;51.838;5.838;2023-04-24T11:15:44;10.20;99.90
21306;DHT22;10812;51.838;5.838;2023-04-24T11:18:16;10.40;99.90
21306;DHT22;10812;51.838;5.838;2023-04-24T11:20:44;10.40;99.90
21306;DHT22;10812;51.838;5.838;2023-04-24T11:23:14;10.60;99.90
21306;DHT22;10812;51.838;5.838;2023-04-24T11:25:42;10.90;99.90
21306;DHT22;10812;51.838;5.838;2023-04-24T11:39:45;10.10;99.90
21306;DHT22;10812;51.838;5.838;2023-04-24T11:42:15;9.80;99.90
21306;DHT22;10812;51.838;5.838;2023-04-24T11:44:43;9.90;99.90
21306;DHT22;10812;51.838;5.838;2023-04-24T11:47:14;10.10;99.90
21306;DHT22;10812;51.838;5.838;2023-04-24T11:49:42;10.40;99.90
21306;DHT22;10812;51.838;5.838;2023-04-24T11:52:10;10.70;99.90
21306;DHT22;10812;51.838;5.838;2023-04-24T11:54:48;10.60;99.90
21306;DHT22;10812;51.838;5.838;2023-04-24T11:57:19;10.50;99.90
21306;DHT22;10812;51.838;5.838;2023-04-24T11:59:49;10.70;99.90
21306;DHT22;10812;51.838;5.838;2023-04-24T12:02:21;11.00;99.90
21306;DHT22;10812;51.838;5.838;2023-04-24T12:04:50;11.40;99.90
21306;DHT22;10812;51.838;5.838;2023-04-24T12:07:18;11.60;99.90
21306;DHT22;10812;51.838;5.838;2023-04-24T12:09:50;11.80;99.90
21306;DHT22;10812;51.838;5.838;2023-04-24T12:12:24;12.00;99.90
21306;DHT22;10812;51.838;5.838;2023-04-24T12:14:55;12.00;99.90
21306;DHT22;10812;51.838;5.838;2023-04-24T12:17:25;11.90;99.90
21306;DHT22;10812;51.838;5.838;2023-04-24T12:19:57;11.70;99.90
21306;DHT22;10812;51.838;5.838;2023-04-24T12:22:27;11.40;99.90
21306;DHT22;10812;51.838;5.838;2023-04-24T12:25:00;11.10;99.90
21306;DHT22;10812;51.838;5.838;2023-04-24T12:27:30;11.10;99.90
21306;DHT22;10812;51.838;5.838;2023-04-24T12:30:00;10.80;99.90
21306;DHT22;10812;51.838;5.838;2023-04-24T12:32:29;10.60;99.90
21306;DHT22;10812;51.838;5.838;2023-04-24T12:34:58;10.40;99.90
21306;DHT22;10812;51.838;5.838;2023-04-24T12:37:32;10.30;99.90
21306;DHT22;10812;51.838;5.838;2023-04-24T12:40:06;10.10;99.90
21306;DHT22;10812;51.838;5.838;2023-04-24T12:42:36;10.00;99.90
21306;DHT22;10812;51.838;5.838;2023-04-24T12:45:10;10.10;99.90
21306;DHT22;10812;51.838;5.838;2023-04-24T12:47:39;10.30;99.90
21306;DHT22;10812;51.838;5.838;2023-04-24T12:50:08;10.60;99.90
21306;DHT22;10812;51.838;5.838;2023-04-24T12:52:38;10.60;99.90
21306;DHT22;10812;51.838;5.838;2023-04-24T12:55:08;10.80;99.90
21306;DHT22;10812;51.838;5.838;2023-04-24T12:57:38;11.00;99.90
21306;DHT22;10812;51.838;5.838;2023-04-24T13:00:07;11.20;99.90
21306;DHT22;10812;51.838;5.838;2023-04-24T13:02:36;11.10;99.90
21306;DHT22;10812;51.838;5.838;2023-04-24T13:05:05;10.80;99.90
21306;DHT22;10812;51.838;5.838;2023-04-24T13:07:33;10.10;99.90
21306;DHT22;10812;51.838;5.838;2023-04-24T13:10:02;9.60;99.90
21306;DHT22;10812;51.838;5.838;2023-04-24T13:12:31;9.40;99.90
21306;DHT22;10812;51.838;5.838;2023-04-24T13:15:00;9.20;99.90
21306;DHT22;10812;51.838;5.838;2023-04-24T13:17:28;9.20;99.90
21306;DHT22;10812;51.838;5.838;2023-04-24T13:19:56;9.30;99.90
21306;DHT22;10812;51.838;5.838;2023-04-24T13:22:24;9.30;99.90
21306;DHT22;10812;51.838;5.838;2023-04-24T13:24:54;9.40;99.90
21306;DHT22;10812;51.838;5.838;2023-04-24T13:27:22;9.60;99.90
21306;DHT22;10812;51.838;5.838;2023-04-24T13:29:52;9.80;99.90
21306;DHT22;10812;51.838;5.838;2023-04-24T13:32:20;10.10;99.90
21306;DHT22;10812;51.838;5.838;2023-04-24T13:34:49;10.30;99.90
21306;DHT22;10812;51.838;5.838;2023-04-24T13:37:17;10.40;99.90
21306;DHT22;10812;51.838;5.838;2023-04-24T13:43:05;10.60;99.90
21306;DHT22;10812;51.838;5.838;2023-04-24T13:45:35;10.60;99.90
21306;DHT22;10812;51.838;5.838;2023-04-24T13:48:04;10.70;99.90
21306;DHT22;10812;51.838;5.838;2023-04-24T13:50:32;10.70;99.90
21306;DHT22;10812;51.838;5.838;2023-04-24T13:53:01;10.60;99.90
21306;DHT22;10812;51.838;5.838;2023-04-24T13:55:29;10.50;99.90
21306;DHT22;10812;51.838;5.838;2023-04-24T13:57:57;10.40;99.90
21306;DHT22;10812;51.838;5.838;2023-04-24T14:00:25;10.30;99.90
21306;DHT22;10812;51.838;5.838;2023-04-24T14:02:55;10.00;99.90
21306;DHT22;10812;51.838;5.838;2023-04-24T14:05:23;9.80;99.90
21306;DHT22;10812;51.838;5.838;2023-04-24T14:07:52;9.60;99.90
21306;DHT22;10812;51.838;5.838;2023-04-24T14:10:20;9.60;99.90
21306;DHT22;10812;51.838;5.838;2023-04-24T14:12:48;9.70;99.90
21306;DHT22;10812;51.838;5.838;2023-04-24T14:15:16;9.90;99.90
21306;DHT22;10812;51.838;5.838;2023-04-24T14:17:44;10.20;99.90
21306;DHT22;10812;51.838;5.838;2023-04-24T14:20:14;10.30;99.90
21306;DHT22;10812;51.838;5.838;2023-04-24T14:22:42;10.50;99.90
21306;DHT22;10812;51.838;5.838;2023-04-24T14:25:10;10.60;99.90
21306;DHT22;10812;51.838;5.838;2023-04-24T14:27:38;10.50;99.90
21306;DHT22;10812;51.838;5.838;2023-04-24T14:30:07;10.80;99.90
21306;DHT22;10812;51.838;5.838;2023-04-24T14:32:36;11.00;99.90
21306;DHT22;10812;51.838;5.838;2023-04-24T14:35:05;11.10;99.90
21306;DHT22;10812;51.838;5.838;2023-04-24T14:37:35;11.20;99.90
21306;DHT22;10812;51.838;5.838;2023-04-24T14:40:04;11.20;99.90
21306;DHT22;10812;51.838;5.838;2023-04-24T14:42:37;11.10;99.90
21306;DHT22;10812;51.838;5.838;2023-04-24T14:45:06;11.20;99.90
21306;DHT22;10812;51.838;5.838;2023-04-24T14:47:35;11.10;99.90
21306;DHT22;10812;51.838;5.838;2023-04-24T14:50:05;11.30;99.90
21306;DHT22;10812;51.838;5.838;2023-04-24T14:52:35;11.20;99.90
21306;DHT22;10812;51.838;5.838;2023-04-24T14:55:05;11.10;99.90
21306;DHT22;10812;51.838;5.838;2023-04-24T14:57:33;10.90;99.90
21306;DHT22;10812;51.838;5.838;2023-04-24T15:00:03;11.00;99.90
21306;DHT22;10812;51.838;5.838;2023-04-24T15:02:35;11.00;99.90
21306;DHT22;10812;51.838;5.838;2023-04-24T15:05:09;10.90;99.90
21306;DHT22;10812;51.838;5.838;2023-04-24T15:07:39;10.90;99.90
21306;DHT22;10812;51.838;5.838;2023-04-24T15:10:09;10.90;99.90
21306;DHT22;10812;51.838;5.838;2023-04-24T15:12:37;10.80;99.90
21306;DHT22;10812;51.838;5.838;2023-04-24T15:15:10;10.90;99.90
21306;DHT22;10812;51.838;5.838;2023-04-24T15:17:38;11.00;99.90
21306;DHT22;10812;51.838;5.838;2023-04-24T15:20:09;11.00;99.90
21306;DHT22;10812;51.838;5.838;2023-04-24T15:22:39;11.00;99.90
21306;DHT22;10812;51.838;5.838;2023-04-24T15:25:07;11.10;99.90
21306;DHT22;10812;51.838;5.838;2023-04-24T15:27:40;11.10;99.90
21306;DHT22;10812;51.838;5.838;2023-04-24T15:30:09;11.30;99.90
21306;DHT22;10812;51.838;5.838;2023-04-24T15:32:38;11.30;99.90
21306;DHT22;10812;51.838;5.838;2023-04-24T15:35:07;11.30;99.90
21306;DHT22;10812;51.838;5.838;2023-04-24T15:37:36;11.20;99.90
21306;DHT22;10812;51.838;5.838;2023-04-24T15:40:07;11.20;99.90
21306;DHT22;10812;51.838;5.838;2023-04-24T15:42:38;11.10;99.90
21306;DHT22;10812;51.838;5.838;2023-04-24T15:45:07;10.90;99.90
21306;DHT22;10812;51.838;5.838;2023-04-24T15:47:36;10.80;99.90
21306;DHT22;10812;51.838;5.838;2023-04-24T15:50:05;10.80;99.90
21306;DHT22;10812;51.838;5.838;2023-04-24T15:52:35;10.80;99.90
21306;DHT22;10812;51.838;5.838;2023-04-24T15:55:06;10.60;99.90
21306;DHT22;10812;51.838;5.838;2023-04-24T15:57:34;10.50;99.90
21306;DHT22;10812;51.838;5.838;2023-04-24T16:00:03;10.60;99.90
21306;DHT22;10812;51.838;5.838;2023-04-24T16:02:33;10.90;99.90
21306;DHT22;10812;51.838;5.838;2023-04-24T16:05:01;11.00;99.90
21306;DHT22;10812;51.838;5.838;2023-04-24T16:07:30;10.90;99.90
21306;DHT22;10812;51.838;5.838;2023-04-24T16:09:58;10.70;99.90
21306;DHT22;10812;51.838;5.838;2023-04-24T16:12:28;10.50;99.90
21306;DHT22;10812;51.838;5.838;2023-04-24T16:14:56;10.40;99.90
21306;DHT22;10812;51.838;5.838;2023-04-24T16:17:24;10.30;99.90
21306;DHT22;10812;51.838;5.838;2023-04-24T16:19:53;10.30;99.90
21306;DHT22;10812;51.838;5.838;2023-04-24T16:22:21;10.30;99.90
21306;DHT22;10812;51.838;5.838;2023-04-24T16:24:49;10.30;99.90
21306;DHT22;10812;51.838;5.838;2023-04-24T16:27:17;10.30;99.90
21306;DHT22;10812;51.838;5.838;2023-04-24T16:29:47;10.20;99.90
21306;DHT22;10812;51.838;5.838;2023-04-24T16:32:15;10.30;99.90
21306;DHT22;10812;51.838;5.838;2023-04-24T16:34:43;10.30;99.90
21306;DHT22;10812;51.838;5.838;2023-04-24T16:37:11;10.30;99.90
21306;DHT22;10812;51.838;5.838;2023-04-24T16:39:40;10.30;99.90
21306;DHT22;10812;51.838;5.838;2023-04-24T16:42:11;10.20;99.90
21306;DHT22;10812;51.838;5.838;2023-04-24T16:44:40;10.20;99.90
21306;DHT22;10812;51.838;5.838;2023-04-24T16:47:10;10.20;99.90
21306;DHT22;10812;51.838;5.838;2023-04-24T16:49:40;10.20;99.90
21306;DHT22;10812;51.838;5.838;2023-04-24T16:52:09;10.20;99.90
21306;DHT22;10812;51.838;5.838;2023-04-24T16:54:37;10.10;99.90
21306;DHT22;10812;51.838;5.838;2023-04-24T16:57:05;10.00;99.90
21306;DHT22;10812;51.838;5.838;2023-04-24T16:59:34;10.00;99.90
21306;DHT22;10812;51.838;5.838;2023-04-24T17:02:02;10.20;99.90
21306;DHT22;10812;51.838;5.838;2023-04-24T17:04:32;10.20;99.90
21306;DHT22;10812;51.838;5.838;2023-04-24T17:07:01;10.10;99.90
21306;DHT22;10812;51.838;5.838;2023-04-24T17:09:30;10.00;99.90
21306;DHT22;10812;51.838;5.838;2023-04-24T17:11:58;10.00;99.90
21306;DHT22;10812;51.838;5.838;2023-04-24T17:14:28;10.00;99.90